createdAt,value
2019-03-12T10:26:19.048Z,247.50
2019-03-12T10:27:19.036Z,253.12
2019-03-12T10:28:19.025Z,253.12
2019-03-12T10:29:19.021Z,253.12
2019-03-12T10:30:18.978Z,253.12
2019-03-12T10:31:18.997Z,247.50
2019-03-12T10:32:18.956Z,241.88
2019-03-12T10:33:18.940Z,236.25
2019-03-12T10:34:28.805Z,230.62
2019-03-12T10:35:19.962Z,225.00
2019-03-12T10:36:19.043Z,230.62
2019-03-12T10:37:18.901Z,241.88
2019-03-12T10:38:18.884Z,258.75
2019-03-12T10:39:18.880Z,270.00
2019-03-12T10:40:18.906Z,281.25
2019-03-12T10:41:18.848Z,298.12
2019-03-12T10:42:18.927Z,292.50
2019-03-12T10:43:18.834Z,298.12
2019-03-12T10:44:18.853Z,298.12
2019-03-12T10:45:18.846Z,298.12
2019-03-12T10:46:18.868Z,298.12
2019-03-12T10:47:18.784Z,298.12
2019-03-12T10:48:18.772Z,303.75
2019-03-12T10:49:18.797Z,309.38
2019-03-12T10:50:18.758Z,320.62
2019-03-12T10:51:18.816Z,326.25
2019-03-12T10:52:18.766Z,343.12
2019-03-12T10:53:18.709Z,343.12
2019-03-12T10:54:18.728Z,343.12
2019-03-12T10:55:18.713Z,348.75
2019-03-12T10:56:18.712Z,354.38
2019-03-12T10:57:21.397Z,354.38
2019-03-12T10:58:19.629Z,354.38
2019-03-12T10:59:18.660Z,354.38
2019-03-12T11:00:18.638Z,360.00
2019-03-12T11:01:18.630Z,360.00
2019-03-12T11:02:20.698Z,360.00
2019-03-12T11:03:18.636Z,354.38
2019-03-12T11:04:19.174Z,354.38
2019-03-12T11:05:18.583Z,360.00
2019-03-12T11:06:18.574Z,354.38
2019-03-12T11:07:18.612Z,348.75
2019-03-12T11:08:18.598Z,348.75
2019-03-12T11:09:18.550Z,354.38
2019-03-12T11:10:18.595Z,348.75
2019-03-12T11:11:18.529Z,348.75
2019-03-12T11:12:18.554Z,348.75
2019-03-12T11:13:18.505Z,348.75
2019-03-12T11:14:18.534Z,343.12
2019-03-12T11:15:18.510Z,343.12
2019-03-12T11:16:18.467Z,343.12
2019-03-12T11:17:19.116Z,348.75
2019-03-12T11:18:18.433Z,354.38
2019-03-12T11:19:18.457Z,354.38
2019-03-12T11:20:18.424Z,354.38
2019-03-12T11:21:18.507Z,348.75
2019-03-12T11:22:18.654Z,348.75
2019-03-12T11:23:18.390Z,343.12
2019-03-12T11:24:18.479Z,343.12
2019-03-12T11:25:27.180Z,348.75
2019-03-12T11:26:19.349Z,348.75
2019-03-12T11:27:18.346Z,348.75
2019-03-12T11:28:18.372Z,354.38
2019-03-12T11:29:18.360Z,360.00
2019-03-12T11:30:18.312Z,360.00
2019-03-12T11:31:18.324Z,360.00
2019-03-12T11:32:18.318Z,354.38
2019-03-12T11:33:18.289Z,354.38
2019-03-12T11:34:18.331Z,354.38
2019-03-12T11:35:18.294Z,354.38
2019-03-12T11:36:19.125Z,348.75
2019-03-12T11:37:18.478Z,343.12
2019-03-12T11:38:18.242Z,343.12
2019-03-12T11:39:18.208Z,343.12
2019-03-12T11:40:18.195Z,343.12
2019-03-12T11:41:18.251Z,343.12
2019-03-12T11:42:18.237Z,343.12
2019-03-12T11:43:18.216Z,348.75
2019-03-12T11:44:18.147Z,348.75
2019-03-12T11:45:19.997Z,354.38
2019-03-12T11:46:18.186Z,360.00
2019-03-12T11:47:18.253Z,360.00
2019-03-12T11:48:18.118Z,360.00
2019-03-12T11:49:18.137Z,360.00
2019-03-12T11:50:18.277Z,365.62
2019-03-12T11:51:18.129Z,360.00
2019-03-12T11:52:18.141Z,365.62
2019-03-12T11:53:18.075Z,365.62
2019-03-12T11:54:18.113Z,365.62
2019-03-12T11:55:18.025Z,382.50
2019-03-12T11:56:18.051Z,371.25
2019-03-12T11:57:18.006Z,360.00
2019-03-12T11:58:18.021Z,360.00
2019-03-12T11:59:18.013Z,371.25
2019-03-12T12:00:19.534Z,371.25
2019-03-12T12:01:17.965Z,371.25
2019-03-12T12:02:18.030Z,376.88
2019-03-12T12:03:18.021Z,371.25
2019-03-12T12:04:17.926Z,354.38
2019-03-12T12:05:17.925Z,354.38
2019-03-12T12:06:18.154Z,388.12
2019-03-12T12:07:18.319Z,388.12
2019-03-12T12:08:17.919Z,388.12
2019-03-12T12:09:19.100Z,388.12
2019-03-12T12:10:17.877Z,382.50
2019-03-12T12:11:17.862Z,382.50
2019-03-12T12:12:17.841Z,382.50
2019-03-12T12:13:17.913Z,382.50
2019-03-12T12:14:17.820Z,410.62
2019-03-12T12:15:17.839Z,416.25
2019-03-12T12:16:17.800Z,416.25
2019-03-12T12:17:17.795Z,416.25
2019-03-12T12:18:17.809Z,405.00
2019-03-12T12:19:17.804Z,416.25
2019-03-12T12:20:28.967Z,399.38
2019-03-12T12:21:18.789Z,410.62
2019-03-12T12:22:17.756Z,393.75
2019-03-12T12:23:17.762Z,405.00
2019-03-12T12:24:17.729Z,399.38
2019-03-12T12:25:17.764Z,371.25
2019-03-12T12:26:17.730Z,365.62
2019-03-12T12:27:17.694Z,371.25
2019-03-12T12:28:17.690Z,365.62
2019-03-12T12:29:17.650Z,371.25
2019-03-12T12:30:17.645Z,354.38
2019-03-12T12:31:17.631Z,348.75
2019-03-12T12:32:17.800Z,348.75
2019-03-12T12:33:17.606Z,348.75
2019-03-12T12:34:17.603Z,348.75
2019-03-12T12:35:17.585Z,360.00
2019-03-12T12:36:17.586Z,348.75
2019-03-12T12:37:17.597Z,343.12
2019-03-12T12:38:17.641Z,337.50
2019-03-12T12:39:17.550Z,331.88
2019-03-12T12:40:17.543Z,331.88
2019-03-12T12:41:17.603Z,331.88
2019-03-12T12:42:17.510Z,326.25
2019-03-12T12:43:17.499Z,331.88
2019-03-12T12:44:17.513Z,331.88
2019-03-12T12:45:17.509Z,337.50
2019-03-12T12:46:17.465Z,337.50
2019-03-12T12:47:17.509Z,337.50
2019-03-12T12:48:17.446Z,343.12
2019-03-12T12:49:17.442Z,348.75
2019-03-12T12:50:17.417Z,348.75
2019-03-12T12:51:17.443Z,348.75
2019-03-12T12:52:17.400Z,348.75
2019-03-12T12:53:17.392Z,354.38
2019-03-12T12:54:17.401Z,337.50
2019-03-12T12:55:17.409Z,326.25
2019-03-12T12:56:17.359Z,315.00
2019-03-12T12:57:17.392Z,303.75
2019-03-12T12:58:17.344Z,303.75
2019-03-12T12:59:17.333Z,298.12
2019-03-12T13:00:17.360Z,303.75
2019-03-12T13:01:17.315Z,303.75
2019-03-12T13:02:17.302Z,309.38
2019-03-12T13:03:17.393Z,309.38
2019-03-12T13:04:17.272Z,315.00
2019-03-12T13:05:17.268Z,315.00
2019-03-12T13:06:17.281Z,320.62
2019-03-12T13:07:17.293Z,326.25
2019-03-12T13:08:17.235Z,326.25
2019-03-12T13:09:17.312Z,326.25
2019-03-12T13:10:17.284Z,326.25
2019-03-12T13:11:17.256Z,320.62
2019-03-12T13:12:17.191Z,320.62
2019-03-12T13:13:17.182Z,320.62
2019-03-12T13:14:17.158Z,320.62
2019-03-12T13:15:17.160Z,326.25
2019-03-12T13:16:24.968Z,331.88
2019-03-12T13:17:18.161Z,343.12
2019-03-12T13:18:17.119Z,360.00
2019-03-12T13:19:17.106Z,354.38
2019-03-12T13:20:17.091Z,365.62
2019-03-12T13:21:17.128Z,348.75
2019-03-12T13:22:17.073Z,354.38
2019-03-12T13:23:17.124Z,348.75
2019-03-12T13:24:17.057Z,348.75
2019-03-12T13:25:17.043Z,354.38
2019-03-12T13:26:17.034Z,343.12
2019-03-12T13:27:17.085Z,337.50
2019-03-12T13:28:17.021Z,337.50
2019-03-12T13:29:17.006Z,331.88
2019-03-12T13:30:17.003Z,331.88
2019-03-12T13:31:17.009Z,337.50
2019-03-12T13:32:16.977Z,320.62
2019-03-12T13:33:17.001Z,315.00
2019-03-12T13:34:16.953Z,315.00
2019-03-12T13:35:16.948Z,315.00
2019-03-12T13:36:16.922Z,315.00
2019-03-12T13:37:16.949Z,320.62
2019-03-12T13:38:16.945Z,320.62
2019-03-12T13:39:16.961Z,320.62
2019-03-12T13:40:16.873Z,320.62
2019-03-12T13:41:16.867Z,315.00
2019-03-12T13:42:16.859Z,309.38
2019-03-12T13:43:16.891Z,303.75
2019-03-12T13:44:16.936Z,298.12
2019-03-12T13:45:16.833Z,298.12
2019-03-12T13:46:17.064Z,292.50
2019-03-12T13:47:16.835Z,286.88
2019-03-12T13:48:16.806Z,281.25
2019-03-12T13:49:16.802Z,281.25
2019-03-12T13:50:16.822Z,275.62
2019-03-12T13:51:17.617Z,275.62
2019-03-12T13:52:16.769Z,275.62
2019-03-12T13:53:16.738Z,270.00
2019-03-12T13:54:16.727Z,270.00
2019-03-12T13:55:16.819Z,264.38
2019-03-12T13:56:16.772Z,258.75
2019-03-12T13:57:16.690Z,253.12
2019-03-12T13:58:16.710Z,247.50
2019-03-12T13:59:16.683Z,236.25
2019-03-12T14:00:16.712Z,230.62
2019-03-12T14:01:16.657Z,225.00
2019-03-12T14:02:16.660Z,219.38
2019-03-12T14:03:16.665Z,213.75
2019-03-12T14:04:16.613Z,208.12
2019-03-12T14:05:16.599Z,196.88
2019-03-12T14:06:16.599Z,191.25
2019-03-12T14:07:16.621Z,191.25
2019-03-12T14:08:16.577Z,185.62
2019-03-12T14:09:16.617Z,185.62
2019-03-12T14:10:16.582Z,180.00
2019-03-12T14:11:16.567Z,180.00
2019-03-12T14:12:16.517Z,174.38
2019-03-12T14:13:16.547Z,174.38
2019-03-12T14:14:16.504Z,174.38
2019-03-12T14:15:16.539Z,174.38
2019-03-12T14:16:16.482Z,174.38
2019-03-12T14:17:16.494Z,174.38
2019-03-12T14:18:16.466Z,174.38
2019-03-12T14:19:16.435Z,180.00
2019-03-12T14:20:16.425Z,180.00
2019-03-12T14:21:16.450Z,180.00
2019-03-12T14:22:16.425Z,174.38
2019-03-12T14:23:16.413Z,174.38
2019-03-12T14:24:16.455Z,180.00
2019-03-12T14:25:16.394Z,185.62
2019-03-12T14:26:16.413Z,185.62
2019-03-12T14:27:16.347Z,180.00
2019-03-12T14:28:16.407Z,163.12
2019-03-12T14:29:16.371Z,151.88
2019-03-12T14:30:16.337Z,146.25
2019-03-12T14:31:16.373Z,146.25
2019-03-12T14:32:16.304Z,146.25
2019-03-12T14:33:16.285Z,146.25
2019-03-12T14:34:16.322Z,140.62
2019-03-12T14:35:16.287Z,135.00
2019-03-12T14:36:16.307Z,129.38
2019-03-12T14:37:16.266Z,123.75
2019-03-12T14:38:16.250Z,123.75
2019-03-12T14:39:16.218Z,123.75
2019-03-12T14:40:16.253Z,123.75
2019-03-12T14:41:16.198Z,123.75
2019-03-12T14:42:16.186Z,123.75
2019-03-12T14:43:16.170Z,123.75
2019-03-12T14:44:16.172Z,123.75
2019-03-12T14:45:16.156Z,118.12
2019-03-12T14:46:16.175Z,118.12
2019-03-12T14:47:16.134Z,118.12
2019-03-12T14:48:16.115Z,118.12
2019-03-12T14:49:16.135Z,118.12
2019-03-12T14:50:16.114Z,123.75
2019-03-12T14:51:16.089Z,123.75
2019-03-12T14:52:16.082Z,123.75
2019-03-12T14:53:21.730Z,123.75
2019-03-12T14:54:17.096Z,118.12
2019-03-12T14:55:16.075Z,118.12
2019-03-12T14:56:16.026Z,112.50
2019-03-12T14:57:16.068Z,112.50
2019-03-12T14:58:16.033Z,106.88
2019-03-12T14:59:16.011Z,101.25
2019-03-12T15:00:15.986Z,101.25
2019-03-12T15:01:15.992Z,95.62
2019-03-12T15:02:16.015Z,90.00
2019-03-12T15:03:15.947Z,90.00
2019-03-12T15:04:15.989Z,90.00
2019-03-12T15:05:15.933Z,90.00
2019-03-12T15:06:15.924Z,90.00
2019-03-12T15:07:15.946Z,90.00
2019-03-12T15:08:15.908Z,84.38
2019-03-12T15:09:15.929Z,84.38
2019-03-12T15:10:15.877Z,78.75
2019-03-12T15:11:15.870Z,78.75
2019-03-12T15:12:15.888Z,73.12
2019-03-12T15:13:15.861Z,73.12
2019-03-12T15:14:15.869Z,73.12
2019-03-12T15:15:15.925Z,73.12
2019-03-12T15:16:15.808Z,73.12
2019-03-12T15:17:15.825Z,73.12
2019-03-12T15:18:15.800Z,73.12
2019-03-12T15:19:15.803Z,73.12
2019-03-12T15:20:15.777Z,73.12
2019-03-12T15:21:15.757Z,73.12
2019-03-12T15:22:15.777Z,73.12
2019-03-12T15:23:15.756Z,78.75
2019-03-12T15:24:15.753Z,84.38
2019-03-12T15:25:15.751Z,84.38
2019-03-12T15:26:15.691Z,90.00
2019-03-12T15:27:15.707Z,90.00
2019-03-12T15:28:15.687Z,90.00
2019-03-12T15:29:15.673Z,90.00
2019-03-12T15:30:15.720Z,90.00
2019-03-12T15:31:15.633Z,90.00
2019-03-12T15:32:15.658Z,95.62
2019-03-12T15:33:15.642Z,95.62
2019-03-12T15:34:15.625Z,95.62
2019-03-12T15:35:15.616Z,95.62
2019-03-12T15:36:15.620Z,90.00
2019-03-12T15:37:15.578Z,90.00
2019-03-12T15:38:15.599Z,84.38
2019-03-12T15:39:15.581Z,84.38
2019-03-12T15:40:15.530Z,84.38
2019-03-12T15:41:15.532Z,84.38
2019-03-12T15:42:15.552Z,84.38
2019-03-12T15:43:15.542Z,78.75
2019-03-12T15:44:15.522Z,78.75
2019-03-12T15:45:15.478Z,78.75
2019-03-12T15:46:15.520Z,73.12
2019-03-12T15:47:15.464Z,73.12
2019-03-12T15:48:15.482Z,73.12
2019-03-12T15:49:15.431Z,73.12
2019-03-12T15:50:18.700Z,73.12
2019-03-12T15:51:15.411Z,73.12
2019-03-12T15:52:15.445Z,73.12
2019-03-12T15:53:15.397Z,67.50
2019-03-12T15:54:15.378Z,61.88
2019-03-12T15:55:15.382Z,61.88
2019-03-12T15:56:15.376Z,56.25
2019-03-12T15:57:15.369Z,50.62
2019-03-12T15:58:15.655Z,50.62
2019-03-12T15:59:15.326Z,50.62
2019-03-12T16:00:15.310Z,50.62
2019-03-12T16:01:15.346Z,50.62
2019-03-12T16:02:15.323Z,50.62
2019-03-12T16:03:15.281Z,50.62
2019-03-12T16:04:15.342Z,50.62
2019-03-12T16:05:15.257Z,45.00
2019-03-12T16:06:15.278Z,45.00
2019-03-12T16:07:15.234Z,45.00
2019-03-12T16:08:15.221Z,39.38
2019-03-12T16:09:15.219Z,39.38
2019-03-12T16:10:15.241Z,39.38
2019-03-12T16:11:15.196Z,39.38
2019-03-12T16:12:15.174Z,39.38
2019-03-12T16:13:15.166Z,39.38
2019-03-12T16:14:15.192Z,33.75
2019-03-12T16:15:15.144Z,33.75
2019-03-12T16:16:15.140Z,28.12
2019-03-12T16:17:15.158Z,28.12
2019-03-12T16:18:15.152Z,28.12
2019-03-12T16:19:15.096Z,28.12
2019-03-12T16:20:15.117Z,28.12
2019-03-12T16:21:15.081Z,28.12
2019-03-12T16:22:15.063Z,28.12
2019-03-12T16:23:15.060Z,28.12
2019-03-12T16:24:15.088Z,28.12
2019-03-12T16:25:15.033Z,28.12
2019-03-12T16:26:15.036Z,28.12
2019-03-12T16:27:15.048Z,28.12
2019-03-12T16:28:15.007Z,28.12
2019-03-12T16:29:14.993Z,28.12
2019-03-12T16:30:15.021Z,28.12
2019-03-12T16:31:14.974Z,22.50
2019-03-12T16:32:14.998Z,22.50
2019-03-12T16:33:14.937Z,22.50
2019-03-12T16:34:14.996Z,16.88
2019-03-12T16:35:14.948Z,16.88
2019-03-12T16:36:14.975Z,16.88
2019-03-12T16:37:14.936Z,16.88
2019-03-12T16:38:14.883Z,11.25
2019-03-12T16:39:14.867Z,11.25
2019-03-12T16:40:14.885Z,11.25
2019-03-12T16:41:14.856Z,5.62
2019-03-12T16:42:14.834Z,5.62
2019-03-12T16:43:15.130Z,5.62
2019-03-12T16:44:14.838Z,5.62
2019-03-12T16:45:14.815Z,5.62
2019-03-12T16:46:14.792Z,5.62
2019-03-12T16:47:14.785Z,5.62
2019-03-12T16:48:14.803Z,5.62
2019-03-12T16:49:14.760Z,5.62
2019-03-12T16:50:14.757Z,5.62
2019-03-12T16:51:14.735Z,5.62
2019-03-12T16:52:14.775Z,5.62
2019-03-12T16:53:14.757Z,5.62
2019-03-12T16:54:14.715Z,5.62
2019-03-12T16:55:14.693Z,5.62
2019-03-12T16:56:14.695Z,5.62
2019-03-12T16:57:14.701Z,5.62
2019-03-12T16:58:14.693Z,5.62
2019-03-12T16:59:14.656Z,5.62
2019-03-12T17:00:14.635Z,5.62
2019-03-12T17:01:14.626Z,5.62
2019-03-12T17:02:14.616Z,5.62
2019-03-12T17:03:14.600Z,5.62
2019-03-12T17:04:14.619Z,0.00
2019-03-12T17:05:14.578Z,0.00
2019-03-12T17:06:14.572Z,0.00
2019-03-12T17:07:14.614Z,0.00
2019-03-12T17:08:14.545Z,0.00
2019-03-12T17:09:14.541Z,0.00
2019-03-12T17:10:14.592Z,0.00
2019-03-12T17:11:14.539Z,0.00
2019-03-12T17:12:14.498Z,0.00
2019-03-12T17:13:14.523Z,0.00
2019-03-12T17:14:14.480Z,0.00
2019-03-12T17:15:14.463Z,0.00
2019-03-12T17:16:14.486Z,0.00
2019-03-12T17:17:14.453Z,0.00
2019-03-12T17:18:14.474Z,0.00
2019-03-12T17:19:14.435Z,0.00
2019-03-12T17:20:14.449Z,0.00
2019-03-12T17:21:14.431Z,0.00
2019-03-12T17:22:14.434Z,0.00
2019-03-12T17:23:14.401Z,0.00
2019-03-12T17:24:14.377Z,0.00
2019-03-12T17:25:14.389Z,0.00
2019-03-12T17:26:14.361Z,0.00
2019-03-12T17:27:14.329Z,0.00
2019-03-12T17:28:14.337Z,0.00
2019-03-12T17:29:14.308Z,0.00
2019-03-12T17:30:14.309Z,0.00
2019-03-12T17:31:14.349Z,0.00
2019-03-12T17:32:14.319Z,0.00
2019-03-12T17:33:14.295Z,0.00
2019-03-12T17:34:14.264Z,0.00
2019-03-12T17:35:14.251Z,0.00
2019-03-12T17:36:14.282Z,0.00
2019-03-12T17:37:14.236Z,0.00
2019-03-12T17:38:14.256Z,0.00
2019-03-12T17:39:14.195Z,0.00
2019-03-12T17:40:14.199Z,0.00
2019-03-12T17:41:14.220Z,0.00
2019-03-12T17:42:14.181Z,0.00
2019-03-12T17:43:14.168Z,0.00
2019-03-12T17:44:14.175Z,0.00
2019-03-12T17:45:14.138Z,0.00
2019-03-12T17:46:14.126Z,0.00
2019-03-12T17:47:14.136Z,0.00
2019-03-12T17:48:14.095Z,0.00
2019-03-12T17:49:14.110Z,0.00
2019-03-12T17:50:14.089Z,0.00
2019-03-12T17:51:14.073Z,0.00
2019-03-12T17:52:14.063Z,0.00
2019-03-12T17:53:14.094Z,0.00
2019-03-12T17:54:14.036Z,0.00
2019-03-12T17:55:14.055Z,0.00
2019-03-12T17:56:14.034Z,0.00
2019-03-12T17:57:14.000Z,0.00
2019-03-12T17:58:14.022Z,0.00
2019-03-12T17:59:13.988Z,0.00
2019-03-12T18:00:14.023Z,0.00
2019-03-12T18:01:14.008Z,0.00
2019-03-12T18:02:14.001Z,0.00
2019-03-12T18:03:13.955Z,0.00
2019-03-12T18:04:13.920Z,0.00
2019-03-12T18:05:13.981Z,0.00
2019-03-12T18:06:13.931Z,0.00
2019-03-12T18:07:13.932Z,0.00
2019-03-12T18:08:14.153Z,0.00
2019-03-12T18:09:13.869Z,0.00
2019-03-12T18:10:13.852Z,0.00
2019-03-12T18:11:13.851Z,0.00
2019-03-12T18:12:13.840Z,0.00
2019-03-12T18:13:13.886Z,0.00
2019-03-12T18:14:13.858Z,0.00
2019-03-12T18:15:13.818Z,0.00
2019-03-12T18:16:13.795Z,0.00
2019-03-12T18:17:13.776Z,0.00
2019-03-12T18:18:13.779Z,0.00
2019-03-12T18:19:13.764Z,0.00
2019-03-12T18:20:13.779Z,0.00
2019-03-12T18:21:13.759Z,0.00
2019-03-12T18:22:13.759Z,0.00
2019-03-12T18:23:13.764Z,0.00
2019-03-12T18:24:13.715Z,0.00
2019-03-12T18:25:13.706Z,0.00
2019-03-12T18:26:13.721Z,0.00
2019-03-12T18:27:13.693Z,0.00
2019-03-12T18:28:13.652Z,0.00
2019-03-12T18:29:13.678Z,0.00
2019-03-12T18:30:13.643Z,0.00
2019-03-12T18:31:13.625Z,0.00
2019-03-12T18:32:13.626Z,0.00
2019-03-12T18:33:13.652Z,0.00
2019-03-12T18:34:13.585Z,0.00
2019-03-12T18:35:13.578Z,0.00
2019-03-12T18:36:13.646Z,0.00
2019-03-12T18:37:13.585Z,0.00
2019-03-12T18:38:13.535Z,0.00
2019-03-12T18:39:13.593Z,0.00
2019-03-12T18:40:13.554Z,0.00
2019-03-12T18:41:13.515Z,0.00
2019-03-12T18:42:13.502Z,0.00
2019-03-12T18:43:14.954Z,0.00
2019-03-12T18:44:13.541Z,0.00
2019-03-12T18:45:13.468Z,0.00
2019-03-12T18:46:13.526Z,0.00
2019-03-12T18:47:13.444Z,0.00
2019-03-12T18:48:13.486Z,0.00
2019-03-12T18:49:13.423Z,0.00
2019-03-12T18:50:13.400Z,0.00
2019-03-12T18:51:13.400Z,0.00
2019-03-12T18:52:13.401Z,0.00
2019-03-12T18:53:13.378Z,0.00
2019-03-12T18:54:13.415Z,0.00
2019-03-12T18:55:13.351Z,0.00
2019-03-12T18:56:13.360Z,0.00
2019-03-12T18:57:13.333Z,0.00
2019-03-12T18:58:13.332Z,0.00
2019-03-12T18:59:13.307Z,0.00
2019-03-12T19:00:13.371Z,0.00
2019-03-12T19:01:13.287Z,0.00
2019-03-12T19:02:13.327Z,0.00
2019-03-12T19:03:13.280Z,0.00
2019-03-12T19:04:13.304Z,0.00
2019-03-12T19:05:13.241Z,0.00
2019-03-12T19:06:13.224Z,0.00
2019-03-12T19:07:17.989Z,0.00
2019-03-12T19:08:14.210Z,0.00
2019-03-12T19:09:13.227Z,0.00
2019-03-12T19:10:13.410Z,0.00
2019-03-12T19:11:13.208Z,0.00
2019-03-12T19:12:13.165Z,0.00
2019-03-12T19:13:13.190Z,0.00
2019-03-12T19:14:13.157Z,0.00
2019-03-12T19:15:13.241Z,0.00
2019-03-12T19:16:13.121Z,0.00
2019-03-12T19:17:13.161Z,0.00
2019-03-12T19:18:13.092Z,0.00
2019-03-12T19:19:13.157Z,0.00
2019-03-12T19:20:13.074Z,0.00
2019-03-12T19:21:13.071Z,0.00
2019-03-12T19:22:13.111Z,0.00
2019-03-12T19:23:13.043Z,0.00
2019-03-12T19:24:13.032Z,0.00
2019-03-12T19:25:13.040Z,0.00
2019-03-12T19:26:13.006Z,0.00
2019-03-12T19:27:13.053Z,0.00
2019-03-12T19:28:13.055Z,0.00
2019-03-12T19:29:12.980Z,0.00
2019-03-12T19:30:12.977Z,0.00
2019-03-12T19:31:12.947Z,0.00
2019-03-12T19:32:12.991Z,0.00
2019-03-12T19:33:12.995Z,0.00
2019-03-12T19:34:12.971Z,0.00
2019-03-12T19:35:12.910Z,0.00
2019-03-12T19:36:12.925Z,0.00
2019-03-12T19:37:12.899Z,0.00
2019-03-12T19:38:12.926Z,0.00
2019-03-12T19:39:12.861Z,0.00
2019-03-12T19:40:12.849Z,0.00
2019-03-12T19:41:12.835Z,0.00
2019-03-12T19:42:12.841Z,0.00
2019-03-12T19:43:12.879Z,0.00
2019-03-12T19:44:12.796Z,0.00
2019-03-12T19:45:12.829Z,0.00
2019-03-12T19:46:12.776Z,0.00
2019-03-12T19:47:12.784Z,0.00
2019-03-12T19:48:12.759Z,0.00
2019-03-12T19:49:12.828Z,0.00
2019-03-12T19:50:12.747Z,0.00
2019-03-12T19:51:12.751Z,0.00
2019-03-12T19:52:12.721Z,0.00
2019-03-12T19:53:12.704Z,0.00
2019-03-12T19:54:12.705Z,0.00
2019-03-12T19:55:12.736Z,0.00
2019-03-12T19:56:12.675Z,0.00
2019-03-12T19:57:12.676Z,0.00
2019-03-12T19:58:12.670Z,0.00
2019-03-12T19:59:12.645Z,0.00
2019-03-12T20:00:12.738Z,0.00
2019-03-12T20:01:12.607Z,0.00
2019-03-12T20:02:16.326Z,0.00
2019-03-12T20:03:15.369Z,0.00
2019-03-12T20:04:12.630Z,0.00
2019-03-12T20:05:12.565Z,0.00
2019-03-12T20:06:12.608Z,0.00
2019-03-12T20:07:12.548Z,0.00
2019-03-12T20:08:12.655Z,0.00
2019-03-12T20:09:12.554Z,0.00
2019-03-12T20:10:12.514Z,0.00
2019-03-12T20:11:12.512Z,0.00
2019-03-12T20:12:12.557Z,0.00
2019-03-12T20:13:12.482Z,0.00
2019-03-12T20:14:12.462Z,0.00
2019-03-12T20:15:12.450Z,0.00
2019-03-12T20:16:12.443Z,0.00
2019-03-12T20:17:12.436Z,0.00
2019-03-12T20:18:12.496Z,0.00
2019-03-12T20:19:12.469Z,0.00
2019-03-12T20:20:12.401Z,0.00
2019-03-12T20:21:12.383Z,0.00
2019-03-12T20:22:12.394Z,0.00
2019-03-12T20:23:12.364Z,0.00
2019-03-12T20:24:12.356Z,0.00
2019-03-12T20:25:12.402Z,0.00
2019-03-12T20:26:12.327Z,0.00
2019-03-12T20:27:12.318Z,0.00
2019-03-12T20:28:12.327Z,0.00
2019-03-12T20:29:12.292Z,0.00
2019-03-12T20:30:12.289Z,0.00
2019-03-12T20:31:12.329Z,0.00
2019-03-12T20:32:12.317Z,0.00
2019-03-12T20:33:12.247Z,0.00
2019-03-12T20:34:12.289Z,0.00
2019-03-12T20:35:12.227Z,0.00
2019-03-12T20:36:12.228Z,0.00
2019-03-12T20:37:12.203Z,0.00
2019-03-12T20:38:12.250Z,0.00
2019-03-12T20:39:12.186Z,0.00
2019-03-12T20:40:12.266Z,0.00
2019-03-12T20:41:12.158Z,0.00
2019-03-12T20:42:12.160Z,0.00
2019-03-12T20:43:12.143Z,0.00
2019-03-12T20:44:12.130Z,0.00
2019-03-12T20:45:12.177Z,0.00
2019-03-12T20:46:12.103Z,0.00
2019-03-12T20:47:12.155Z,0.00
2019-03-12T20:48:12.085Z,0.00
2019-03-12T20:49:12.091Z,0.00
2019-03-12T20:50:12.068Z,0.00
2019-03-12T20:51:13.217Z,0.00
2019-03-12T20:52:12.037Z,0.00
2019-03-12T20:53:12.025Z,0.00
2019-03-12T20:54:12.010Z,0.00
2019-03-12T20:55:12.007Z,0.00
2019-03-12T20:56:11.992Z,0.00
2019-03-12T20:57:12.049Z,0.00
2019-03-12T20:58:12.022Z,0.00
2019-03-12T20:59:11.979Z,0.00
2019-03-12T21:00:11.947Z,0.00
2019-03-12T21:01:11.932Z,0.00
2019-03-12T21:02:11.964Z,0.00
2019-03-12T21:03:11.918Z,0.00
2019-03-12T21:04:11.957Z,0.00
2019-03-12T21:05:11.897Z,0.00
2019-03-12T21:06:11.878Z,0.00
2019-03-12T21:07:11.865Z,0.00
2019-03-12T21:08:11.853Z,0.00
2019-03-12T21:09:11.845Z,0.00
2019-03-12T21:10:11.904Z,0.00
2019-03-12T21:11:11.832Z,0.00
2019-03-12T21:12:11.810Z,0.00
2019-03-12T21:13:11.814Z,0.00
2019-03-12T21:14:11.846Z,0.00
2019-03-12T21:15:11.822Z,0.00
2019-03-12T21:16:11.772Z,0.00
2019-03-12T21:17:11.815Z,0.00
2019-03-12T21:18:11.744Z,0.00
2019-03-12T21:19:11.732Z,0.00
2019-03-12T21:20:11.726Z,0.00
2019-03-12T21:21:11.707Z,0.00
2019-03-12T21:22:11.753Z,0.00
2019-03-12T21:23:11.695Z,0.00
2019-03-12T21:24:11.686Z,0.00
2019-03-12T21:25:11.729Z,0.00
2019-03-12T21:26:11.794Z,0.00
2019-03-12T21:27:11.643Z,0.00
2019-03-12T21:28:11.671Z,0.00
2019-03-12T21:29:11.622Z,0.00
2019-03-12T21:30:11.736Z,0.00
2019-03-12T21:31:14.704Z,0.00
2019-03-12T21:32:11.601Z,0.00
2019-03-12T21:33:15.495Z,0.00
2019-03-12T21:34:11.566Z,0.00
2019-03-12T21:35:11.572Z,0.00
2019-03-12T21:36:11.544Z,0.00
2019-03-12T21:37:11.541Z,0.00
2019-03-12T21:38:11.552Z,0.00
2019-03-12T21:39:11.511Z,0.00
2019-03-12T21:40:11.496Z,0.00
2019-03-12T21:41:11.485Z,0.00
2019-03-12T21:42:11.483Z,0.00
2019-03-12T21:43:11.493Z,0.00
2019-03-12T21:44:11.470Z,0.00
2019-03-12T21:45:11.441Z,0.00
2019-03-12T21:46:11.472Z,0.00
2019-03-12T21:47:11.419Z,0.00
2019-03-12T21:48:11.441Z,0.00
2019-03-12T21:49:11.399Z,0.00
2019-03-12T21:50:11.387Z,0.00
2019-03-12T21:51:11.378Z,0.00
2019-03-12T21:52:11.365Z,0.00
2019-03-12T21:53:11.387Z,0.00
2019-03-12T21:54:11.347Z,0.00
2019-03-12T21:55:11.336Z,0.00
2019-03-12T21:56:11.354Z,0.00
2019-03-12T21:57:11.317Z,0.00
2019-03-12T21:58:11.306Z,0.00
2019-03-12T21:59:11.289Z,0.00
2019-03-12T22:00:11.282Z,0.00
2019-03-12T22:01:11.271Z,0.00
2019-03-12T22:02:11.336Z,0.00
2019-03-12T22:03:11.247Z,0.00
2019-03-12T22:04:11.236Z,0.00
2019-03-12T22:05:11.391Z,0.00
2019-03-12T22:06:11.215Z,0.00
2019-03-12T22:07:11.213Z,0.00
2019-03-12T22:08:11.191Z,0.00
2019-03-12T22:09:11.216Z,0.00
2019-03-12T22:10:11.175Z,0.00
2019-03-12T22:11:11.160Z,0.00
2019-03-12T22:12:11.195Z,0.00
2019-03-12T22:13:11.170Z,0.00
2019-03-12T22:14:11.126Z,0.00
2019-03-12T22:15:11.122Z,0.00
2019-03-12T22:16:11.135Z,0.00
2019-03-12T22:17:11.098Z,0.00
2019-03-12T22:18:11.084Z,0.00
2019-03-12T22:19:11.104Z,0.00
2019-03-12T22:20:11.093Z,0.00
2019-03-12T22:21:11.094Z,0.00
2019-03-12T22:22:11.041Z,0.00
2019-03-12T22:23:11.036Z,0.00
2019-03-12T22:24:11.020Z,0.00
2019-03-12T22:25:11.010Z,0.00
2019-03-12T22:26:11.114Z,0.00
2019-03-12T22:27:10.994Z,0.00
2019-03-12T22:28:11.003Z,0.00
2019-03-12T22:29:11.021Z,0.00
2019-03-12T22:30:10.955Z,0.00
2019-03-12T22:31:10.946Z,0.00
2019-03-12T22:32:10.933Z,0.00
2019-03-12T22:33:10.988Z,0.00
2019-03-12T22:34:10.911Z,0.00
2019-03-12T22:35:10.919Z,0.00
2019-03-12T22:36:10.888Z,0.00
2019-03-12T22:37:10.883Z,0.00
2019-03-12T22:38:10.868Z,0.00
2019-03-12T22:39:10.900Z,0.00
2019-03-12T22:40:10.845Z,0.00
2019-03-12T22:41:10.844Z,0.00
2019-03-12T22:42:10.822Z,0.00
2019-03-12T22:43:10.817Z,0.00
2019-03-12T22:44:10.836Z,0.00
2019-03-12T22:45:10.791Z,0.00
2019-03-12T22:46:10.817Z,0.00
2019-03-12T22:47:10.769Z,0.00
2019-03-12T22:48:10.760Z,0.00
2019-03-12T22:49:10.779Z,0.00
2019-03-12T22:50:10.737Z,0.00
2019-03-12T22:51:10.724Z,0.00
2019-03-12T22:52:10.718Z,0.00
2019-03-12T22:53:10.704Z,0.00
2019-03-12T22:54:10.722Z,0.00
2019-03-12T22:55:10.720Z,0.00
2019-03-12T22:56:10.674Z,0.00
2019-03-12T22:57:10.672Z,0.00
2019-03-12T22:58:10.650Z,0.00
2019-03-12T22:59:10.640Z,0.00
2019-03-12T23:00:10.664Z,0.00
2019-03-12T23:01:10.638Z,0.00
2019-03-12T23:02:10.612Z,0.00
2019-03-12T23:03:10.612Z,0.00
2019-03-12T23:04:10.585Z,0.00
2019-03-12T23:05:10.585Z,0.00
2019-03-12T23:06:10.592Z,0.00
2019-03-12T23:07:10.552Z,0.00
2019-03-12T23:08:10.577Z,0.00
2019-03-12T23:09:10.531Z,0.00
2019-03-12T23:10:10.521Z,0.00
2019-03-12T23:11:10.510Z,0.00
2019-03-12T23:12:10.498Z,0.00
2019-03-12T23:13:10.488Z,0.00
2019-03-12T23:14:10.507Z,0.00
2019-03-12T23:15:10.493Z,0.00
2019-03-12T23:16:10.465Z,0.00
2019-03-12T23:17:10.476Z,0.00
2019-03-12T23:18:10.438Z,0.00
2019-03-12T23:19:10.453Z,0.00
2019-03-12T23:20:10.445Z,0.00
2019-03-12T23:21:10.418Z,0.00
2019-03-12T23:22:10.393Z,0.00